Time;durP1;ratioP1;P1;durP2;ratioP2;P2;SDS_P1;SDS_P2;PMS_P1;PMS_P2;Temp;Humidity;BMP_temperature;BMP_pressure;BME280_temperature;BME280_humidity;BME280_pressure;Samples;Min_cycle;Max_cycle;Signal;HPM_P1;HPM_P2
2021/01/16 00:01:45;;;;;;;5.15;3.67;;;;;;;3.98;51.78;99882.69;5655708;23;20529;-81
2021/01/16 00:19:44;;;;;;;4.20;2.75;;;;;;;3.97;52.60;99894.84;5763976;23;20252;-79
2021/01/16 00:22:12;;;;;;;3.28;2.28;;;;;;;4.15;52.81;99933.03;4944930;28;20030;-82
2021/01/16 00:53:07;;;;;;;4.93;2.50;;;;;;;4.20;60.67;99963.16;5532413;23;20043;-80
2021/01/16 00:58:16;;;;;;;2.58;1.90;;;;;;;4.16;60.97;99962.22;5614739;23;20032;-75
2021/01/16 01:00:44;;;;;;;2.20;1.88;;;;;;;4.11;60.75;99975.34;4960799;28;20034;-83
2021/01/16 01:03:23;;;;;;;4.60;2.17;;;;;;;4.18;61.27;99970.13;4944693;28;20038;-83
2021/01/16 01:08:29;;;;;;;4.75;2.47;;;;;;;3.81;61.58;99949.56;5168827;23;20046;-81
2021/01/16 01:10:55;;;;;;;5.25;2.25;;;;;;;3.77;61.40;99935.63;5391536;23;20043;-79
2021/01/16 01:18:31;;;;;;;4.50;2.28;;;;;;;3.69;61.32;99922.72;5965465;23;20015;-75
2021/01/16 01:24:18;;;;;;;3.00;2.20;;;;;;;3.97;60.49;99971.91;6078291;23;20022;31
2021/01/16 01:26:46;;;;;;;2.00;1.80;;;;;;;3.76;60.89;99927.72;5644486;23;20082;-81
2021/01/16 01:49:54;;;;;;;3.03;2.50;;;;;;;3.53;60.77;99949.88;5302948;23;20042;-83
2021/01/16 01:57:33;;;;;;;2.45;1.98;;;;;;;3.40;59.70;99945.31;5541374;23;20047;-83
2021/01/16 02:08:25;;;;;;;3.05;1.60;;;;;;;3.97;54.36;99978.25;5834317;23;20043;-76
2021/01/16 02:10:51;;;;;;;3.67;2.30;;;;;;;3.97;54.59;99955.41;4947163;28;20019;-80
2021/01/16 02:18:33;;;;;;;3.13;2.20;;;;;;;3.87;55.14;99970.28;5862887;23;20059;-83
2021/01/16 02:21:04;;;;;;;2.25;1.70;;;;;;;3.92;55.23;99976.44;4947204;29;20022;-81
2021/01/16 02:23:31;;;;;;;2.38;1.77;;;;;;;3.97;53.73;99975.47;5182989;23;20030;-76
2021/01/16 02:26:15;;;;;;;3.35;1.65;;;;;;;3.95;53.87;99977.75;5240536;23;20047;-79
2021/01/16 02:33:54;;;;;;;4.07;1.38;;;;;;;3.78;53.52;99939.19;6014548;23;20114;-76
2021/01/16 02:57:17;;;;;;;1.40;1.27;;;;;;;3.68;53.65;99932.91;5467303;23;20035;-81
2021/01/16 02:59:46;;;;;;;1.27;1.10;;;;;;;3.92;53.10;99961.88;4965599;28;20047;-82
2021/01/16 03:12:42;;;;;;;1.58;1.45;;;;;;;3.65;52.52;99930.78;5149026;23;20080;-79
2021/01/16 03:15:14;;;;;;;2.47;1.52;;;;;;;3.62;53.01;99931.44;4980722;28;20039;-81
2021/01/16 03:22:54;;;;;;;1.90;1.40;;;;;;;3.50;53.19;99925.75;5440719;23;20035;-81
2021/01/16 03:30:30;;;;;;;1.40;1.30;;;;;;;3.38;53.64;99934.63;5809574;23;20038;-80
2021/01/16 03:53:38;;;;;;;5.22;3.70;;;;;;;3.12;52.42;99918.06;5132108;23;20043;-84
2021/01/16 03:56:08;;;;;;;2.38;2.13;;;;;;;3.51;52.95;99981.56;4945255;28;20067;-83
2021/01/16 03:58:37;;;;;;;2.60;1.98;;;;;;;3.52;52.20;99985.97;4945010;28;20024;-79
2021/01/16 04:01:05;;;;;;;4.13;2.58;;;;;;;3.48;52.13;99996.78;4945229;28;20087;-80
2021/01/16 04:03:34;;;;;;;4.43;2.45;;;;;;;3.47;52.29;99997.13;4944986;29;20050;-80
2021/01/16 04:13:48;;;;;;;2.97;1.88;;;;;;;3.24;51.67;99980.69;5804416;23;20046;-82
2021/01/16 04:16:17;;;;;;;2.55;2.10;;;;;;;3.56;52.92;100020.75;4979840;28;20030;-81
2021/01/16 04:18:47;;;;;;;7.65;2.40;;;;;;;3.49;52.71;100027.84;4963954;28;20034;-78
2021/01/16 04:21:15;;;;;;;2.97;2.45;;;;;;;3.41;52.75;100024.78;4979952;28;20027;-79
2021/01/16 04:23:43;;;;;;;4.55;2.53;;;;;;;3.46;52.84;100031.22;4964218;28;20098;-80
2021/01/16 04:26:09;;;;;;;2.65;1.60;;;;;;;3.48;52.20;100035.31;4963821;29;20022;-82
2021/01/16 04:28:35;;;;;;;1.85;1.50;;;;;;;3.48;51.01;100032.56;4963755;28;20020;-82
2021/01/16 04:31:03;;;;;;;1.85;1.33;;;;;;;3.34;51.33;100013.41;4986473;23;20092;-79
2021/01/16 04:33:29;;;;;;;1.50;1.40;;;;;;;3.56;51.12;100029.00;4925841;28;20054;-79
2021/01/16 04:35:57;;;;;;;1.70;1.60;;;;;;;3.64;50.93;100049.44;4925864;29;20040;-80
2021/01/16 04:49:06;;;;;;;2.17;1.98;;;;;;;3.55;50.58;100008.13;4959405;28;20031;-80
2021/01/16 04:51:43;;;;;;;2.67;1.27;;;;;;;3.78;51.44;100049.28;4944519;29;20031;-82
2021/01/16 04:59:20;;;;;;;1.73;1.50;;;;;;;3.45;52.00;100024.94;5450615;23;20047;-81
2021/01/16 05:14:56;;;;;;;1.58;1.42;;;;;;;3.32;52.83;100043.19;5873274;23;20051;-76
2021/01/16 05:17:25;;;;;;;3.13;1.52;;;;;;;3.55;53.23;100070.59;4979940;28;20019;-80
2021/01/16 05:25:04;;;;;;;1.48;1.23;;;;;;;3.19;51.95;100004.78;5047693;23;20046;-82
2021/01/16 05:27:36;;;;;;;3.30;1.50;;;;;;;3.73;52.31;100080.53;4979413;28;20023;-79
2021/01/16 05:30:05;;;;;;;1.85;1.25;;;;;;;3.74;52.30;100093.16;4966478;28;20043;-80
2021/01/16 05:32:33;;;;;;;0.93;0.93;;;;;;;3.67;52.28;100088.13;4966707;28;20019;-83
2021/01/16 05:35:19;;;;;;;1.80;1.58;;;;;;;3.63;53.10;100089.88;4966983;28;20019;-80
2021/01/16 05:40:19;;;;;;;20.48;14.95;;;;;;;3.50;53.98;100104.56;4962518;28;20036;-82
2021/01/16 05:42:51;;;;;;;4.38;3.00;;;;;;;3.56;54.68;100106.03;5366719;23;20131;-81
2021/01/16 05:45:17;;;;;;;2.47;2.28;;;;;;;3.10;54.78;100035.81;5340339;23;20047;-78
2021/01/16 05:47:48;;;;;;;3.28;2.97;;;;;;;3.36;54.75;100098.38;4966757;28;20050;-79
2021/01/16 05:55:34;;;;;;;3.80;2.72;;;;;;;2.80;56.57;100067.66;5852398;23;20071;-81
2021/01/16 05:58:05;;;;;;;2.22;2.03;;;;;;;3.02;57.95;100099.78;4966666;28;20015;-81
2021/01/16 06:00:35;;;;;;;2.65;2.42;;;;;;;3.07;57.51;100118.91;4982485;28;20027;-80
2021/01/16 06:03:01;;;;;;;5.88;3.03;;;;;;;3.07;57.41;100120.84;4982658;28;20082;-80
2021/01/16 06:05:28;;;;;;;3.03;2.72;;;;;;;3.17;56.64;100117.81;4966328;28;20023;-80
2021/01/16 06:15:46;;;;;;;2.60;2.40;;;;;;;3.23;51.10;100066.25;4998691;23;20050;-80
2021/01/16 06:18:17;;;;;;;6.30;5.18;;;;;;;3.61;51.29;100143.59;4965810;29;20015;-83
2021/01/16 06:20:51;;;;;;;4.25;3.80;;;;;;;3.71;50.50;100132.31;4966028;29;20015;-79
2021/01/16 06:23:24;;;;;;;10.43;7.88;;;;;;;3.41;50.97;100092.72;5255447;23;20014;-79
2021/01/16 06:25:58;;;;;;;9.77;3.65;;;;;;;3.81;50.15;100142.22;4962782;28;20031;-83
2021/01/16 06:28:30;;;;;;;3.90;3.00;;;;;;;3.86;50.38;100137.38;4962604;28;20081;-82
2021/01/16 06:30:59;;;;;;;3.00;2.38;;;;;;;3.73;50.22;100096.22;5167498;23;20034;-80
2021/01/16 06:33:30;;;;;;;2.63;2.03;;;;;;;4.00;49.98;100141.97;4927483;29;20028;-82
2021/01/16 06:38:36;;;;;;;5.18;4.00;;;;;;;4.08;49.11;100088.84;4963127;23;20269;-81
2021/01/16 06:41:31;;;;;;;4.72;3.00;;;;;;;4.66;48.03;100143.50;4946365;29;20058;-81
2021/01/16 06:43:57;;;;;;;2.10;1.90;;;;;;;4.96;47.86;100140.91;4944449;29;20042;-80
2021/01/16 06:46:42;;;;;;;3.28;2.42;;;;;;;4.99;46.92;100140.25;4946315;29;20026;-79
2021/01/16 06:49:16;;;;;;;;;;;;;;;5.14;46.28;100150.75;4946713;28;20020;-83
2021/01/16 06:51:43;;;;;;;;;;;;;;;5.43;45.16;100152.00;4946628;29;19910;-79
2021/01/16 06:54:08;;;;;;;2.30;2.10;;;;;;;5.75;45.19;100153.34;4946348;29;19910;-81
2021/01/16 06:56:39;;;;;;;19.23;14.25;;;;;;;6.05;43.82;100148.69;4946151;28;20043;-81
2021/01/16 06:59:13;;;;;;;4.72;3.47;;;;;;;6.31;44.07;100148.53;4962892;28;20015;-82
2021/01/16 07:01:40;;;;;;;3.53;2.80;;;;;;;5.90;43.59;100151.97;4945486;29;20116;-82
2021/01/16 07:11:53;;;;;;;5.38;3.80;;;;;;;6.12;42.26;100121.34;5507261;23;20022;-79
2021/01/16 07:19:30;;;;;;;2.97;2.60;;;;;;;6.52;40.57;100137.50;4996564;23;20035;-80
2021/01/16 07:24:32;;;;;;;5.32;4.75;;;;;;;6.65;40.54;100144.69;5514633;23;21253;-79
2021/01/16 07:26:58;;;;;;;3.15;2.67;;;;;;;7.27;40.07;100179.78;4926984;29;20083;-81
2021/01/16 07:29:26;;;;;;;8.65;5.68;;;;;;;7.51;38.94;100134.78;5445866;23;20048;-82
2021/01/16 07:31:57;;;;;;;12.90;8.90;;;;;;;7.77;38.62;100175.97;4941585;29;20020;-80
2021/01/16 07:34:23;;;;;;;7.95;5.07;;;;;;;8.09;37.75;100176.25;5112804;23;21187;-81
2021/01/16 07:36:51;;;;;;;6.75;4.60;;;;;;;8.16;37.69;100176.50;4943927;29;20050;-82
2021/01/16 07:39:17;;;;;;;5.20;3.80;;;;;;;8.63;37.63;100181.56;4945749;29;20044;-83
2021/01/16 07:41:48;;;;;;;10.20;6.78;;;;;;;8.86;36.86;100154.91;5483096;23;20062;-81
2021/01/16 07:44:21;;;;;;;8.50;4.88;;;;;;;9.36;34.86;100195.16;4945423;29;20020;-80
2021/01/16 07:46:52;;;;;;;16.58;9.85;;;;;;;9.25;36.87;100179.38;4945260;29;20051;-83
2021/01/16 07:52:06;;;;;;;4.60;2.75;;;;;;;8.85;35.44;100147.75;5453857;23;20047;-81
2021/01/16 07:54:37;;;;;;;6.07;2.28;;;;;;;9.15;34.79;100191.78;4961034;29;20050;-80
2021/01/16 07:57:12;;;;;;;14.48;2.17;;;;;;;9.25;34.73;100196.03;4945539;29;20028;-81
2021/01/16 07:59:49;;;;;;;5.15;2.15;;;;;;;9.10;34.63;100186.50;4945187;29;20047;-80
2021/01/16 08:02:28;;;;;;;2.85;1.90;;;;;;;8.35;34.64;100201.66;4945344;29;20015;-82
2021/01/16 08:10:27;;;;;;;6.45;4.32;;;;;;;9.27;33.99;100175.09;5329152;23;20079;-82
2021/01/16 08:12:57;;;;;;;5.78;3.00;;;;;;;8.77;33.47;100198.63;4996200;28;20094;-78
2021/01/16 08:15:30;;;;;;;4.72;3.58;;;;;;;9.29;33.97;100200.53;4996350;28;20022;-80
2021/01/16 08:18:02;;;;;;;2.03;1.90;;;;;;;9.10;33.44;100178.97;5343227;23;20106;-83
2021/01/16 08:20:38;;;;;;;4.72;3.28;;;;;;;9.21;33.35;100209.81;4964037;29;20019;-78
2021/01/16 08:23:04;;;;;;;3.65;2.53;;;;;;;9.21;34.47;100165.38;5271409;23;20039;-80
2021/01/16 08:25:32;;;;;;;5.28;3.22;;;;;;;8.98;33.74;100205.97;5212968;23;20047;-80
2021/01/16 08:28:00;;;;;;;9.70;7.20;;;;;;;9.37;33.63;100184.88;4963791;29;20030;-80
2021/01/16 08:30:31;;;;;;;5.75;3.13;;;;;;;8.96;33.83;100206.34;5199203;23;20051;-80
2021/01/16 08:33:10;;;;;;;2.78;2.42;;;;;;;9.25;33.22;100212.69;4944152;29;20031;-80
2021/01/16 08:35:39;;;;;;;8.18;5.10;;;;;;;8.92;33.82;100210.97;4943727;28;20056;-81
2021/01/16 08:38:17;;;;;;;19.40;11.45;;;;;;;8.41;34.40;100218.88;4944885;29;20016;-78
2021/01/16 08:40:50;;;;;;;7.68;4.72;;;;;;;8.19;34.43;100231.22;4944722;28;20042;-80
2021/01/16 08:43:35;;;;;;;6.65;3.60;;;;;;;8.94;34.29;100214.19;4939323;29;20036;-78
2021/01/16 08:46:23;;;;;;;10.25;6.88;;;;;;;8.86;33.20;100224.28;4940835;29;20036;-78
2021/01/16 08:49:18;;;;;;;8.38;5.93;;;;;;;9.19;33.69;100226.03;4944166;29;20070;-82
2021/01/16 08:51:51;;;;;;;4.57;4.13;;;;;;;9.00;32.33;100220.28;4943625;28;20027;-76
2021/01/16 08:54:20;;;;;;;4.18;3.10;;;;;;;9.31;32.89;100220.41;4936478;29;20023;-80
2021/01/16 08:56:54;;;;;;;7.28;4.95;;;;;;;8.89;32.72;100220.81;4944045;29;20035;-80
2021/01/16 08:59:30;;;;;;;5.53;3.88;;;;;;;9.37;33.32;100188.44;5529347;23;20017;-82
2021/01/16 09:02:10;;;;;;;4.35;3.58;;;;;;;9.70;33.33;100229.84;4963548;28;20046;-83
2021/01/16 09:04:39;;;;;;;4.45;2.83;;;;;;;9.52;33.44;100222.19;4982913;28;20026;-81
2021/01/16 09:07:13;;;;;;;2.78;2.13;;;;;;;9.65;33.22;100223.75;4983403;28;20023;-82
2021/01/16 09:09:39;;;;;;;5.85;3.70;;;;;;;10.28;33.79;100234.94;4967120;28;20019;-81
2021/01/16 09:12:06;;;;;;;10.35;8.35;;;;;;;10.48;32.18;100233.03;4967140;29;20022;-82
2021/01/16 09:14:38;;;;;;;21.23;13.38;;;;;;;10.38;31.68;100205.75;4982973;23;20067;-83
2021/01/16 09:17:24;;;;;;;6.18;5.10;;;;;;;9.55;32.01;100199.25;5025184;23;20047;-81
2021/01/16 09:19:58;;;;;;;5.40;4.40;;;;;;;9.69;31.47;100247.69;4983844;28;20022;-80
2021/01/16 09:25:21;;;;;;;3.72;2.95;;;;;;;9.49;31.55;100245.13;5751874;23;19908;-78
2021/01/16 09:27:51;;;;;;;7.40;5.28;;;;;;;9.57;32.50;100241.38;4910026;29;20017;-83
2021/01/16 09:30:30;;;;;;;4.10;3.70;;;;;;;10.15;31.88;100245.31;4925428;29;20024;-78
2021/01/16 09:32:56;;;;;;;10.00;8.55;;;;;;;9.69;32.51;100249.63;4925468;29;20020;-81
2021/01/16 09:35:39;;;;;;;6.00;5.05;;;;;;;9.72;32.39;100254.50;4909888;29;20050;-82
2021/01/16 09:38:26;;;;;;;3.53;2.95;;;;;;;9.54;32.84;100253.19;4909966;29;20023;-82
2021/01/16 09:40:55;;;;;;;3.28;2.33;;;;;;;9.36;33.01;100261.81;4909629;29;20016;-80
2021/01/16 09:43:23;;;;;;;5.65;2.65;;;;;;;8.81;33.62;100255.03;4909667;29;20031;-81
2021/01/16 09:45:55;;;;;;;3.80;2.15;;;;;;;9.56;33.09;100265.56;4909332;29;20100;-80
2021/01/16 09:48:46;;;;;;;2.08;1.90;;;;;;;9.59;32.30;100259.31;4925168;29;20036;-81
2021/01/16 09:51:13;;;;;;;3.53;1.65;;;;;;;9.41;32.63;100244.91;4925175;29;20088;-82
2021/01/16 09:53:39;;;;;;;3.05;2.50;;;;;;;9.96;32.80;100251.59;4907767;29;20016;-79
2021/01/16 09:56:06;;;;;;;5.07;2.83;;;;;;;9.63;32.47;100254.63;4908136;29;20043;-81
2021/01/16 09:58:42;;;;;;;10.88;6.13;;;;;;;9.41;33.16;100261.56;4923649;29;20136;-78
2021/01/16 10:01:29;;;;;;;4.00;2.90;;;;;;;9.33;33.16;100215.34;5585204;23;20702;-75
2021/01/16 10:04:03;;;;;;;2.85;2.00;;;;;;;8.98;32.24;100222.63;4942353;29;20020;-80
2021/01/16 10:06:35;;;;;;;7.40;2.40;;;;;;;8.95;32.61;100174.19;4927896;29;20028;-80
2021/01/16 10:09:17;;;;;;;3.03;2.55;;;;;;;9.92;33.28;100250.69;4927857;29;20024;-79
2021/01/16 10:11:44;;;;;;;7.50;3.20;;;;;;;10.11;31.83;100246.38;4925244;29;20030;-81
2021/01/16 10:14:18;;;;;;;5.95;2.35;;;;;;;10.22;30.92;100261.34;4926856;29;20053;-80
2021/01/16 10:16:45;;;;;;;2.55;2.28;;;;;;;10.36;31.29;100258.16;4927296;29;20115;-81
2021/01/16 10:19:12;;;;;;;3.60;3.30;;;;;;;10.51;30.78;100245.41;4927814;29;20036;-81
2021/01/16 10:21:57;;;;;;;9.27;5.90;;;;;;;10.65;32.68;100231.81;4926097;29;20049;-81
2021/01/16 10:24:24;;;;;;;16.90;10.40;;;;;;;10.09;31.90;100243.97;4926652;29;20016;-81
2021/01/16 10:26:54;;;;;;;4.72;3.75;;;;;;;10.16;30.41;100243.31;4926830;29;20040;-80
2021/01/16 10:29:29;;;;;;;13.07;7.38;;;;;;;10.57;31.03;100236.44;4910088;29;20036;-81
2021/01/16 10:32:24;;;;;;;7.60;4.75;;;;;;;10.31;31.63;100237.00;4927077;29;20016;-81
2021/01/16 10:34:58;;;;;;;3.75;2.53;;;;;;;10.06;32.17;100241.06;4926630;29;20020;-81
2021/01/16 10:37:29;;;;;;;4.18;2.88;;;;;;;10.83;30.85;100251.72;4922244;29;20040;-80
2021/01/16 10:39:56;;;;;;;83.72;40.45;;;;;;;10.46;30.66;100257.63;4924605;29;20032;-80
2021/01/16 10:42:24;;;;;;;50.20;25.52;;;;;;;10.23;31.67;100254.66;4907527;29;20067;-77
2021/01/16 10:45:01;;;;;;;17.55;9.95;;;;;;;10.07;31.64;100237.97;4902796;29;20058;-77
2021/01/16 10:47:42;;;;;;;43.28;24.00;;;;;;;9.74;32.42;100243.00;4902699;29;20028;-77
2021/01/16 10:50:23;;;;;;;8.32;5.30;;;;;;;9.54;32.09;100248.44;4902578;29;20032;-76
2021/01/16 10:53:01;;;;;;;9.68;4.15;;;;;;;9.94;32.36;100247.53;4902581;29;20175;-77
2021/01/16 10:55:56;;;;;;;3.30;2.33;;;;;;;10.00;31.76;100231.41;4902665;29;20035;-77
2021/01/16 10:58:26;;;;;;;10.82;6.90;;;;;;;9.85;31.97;100227.44;4903457;29;20040;-77
2021/01/16 11:00:57;;;;;;;6.18;4.72;;;;;;;10.10;31.65;100230.88;4903189;29;20036;-77
2021/01/16 11:03:27;;;;;;;13.45;8.60;;;;;;;10.07;31.13;100228.81;4917296;29;20056;-78
2021/01/16 11:06:08;;;;;;;4.22;3.38;;;;;;;10.46;31.02;100233.38;4919158;29;20036;-78
2021/01/16 11:08:39;;;;;;;6.32;4.15;;;;;;;10.24;30.59;100225.69;4921206;29;20032;-78
2021/01/16 11:11:33;;;;;;;4.15;2.75;;;;;;;10.71;30.34;100227.63;4920058;29;20024;-78
2021/01/16 11:14:02;;;;;;;5.75;3.75;;;;;;;10.57;30.07;100224.50;4918440;29;20040;-79
2021/01/16 11:16:27;;;;;;;5.35;3.17;;;;;;;10.69;29.62;100227.16;4904097;29;20036;-79
2021/01/16 11:19:07;;;;;;;5.85;3.55;;;;;;;10.76;30.07;100216.19;4918104;29;20038;-78
2021/01/16 11:21:52;;;;;;;4.85;3.38;;;;;;;10.04;30.09;100226.75;4918215;29;20126;-79
2021/01/16 11:24:20;;;;;;;5.28;4.50;;;;;;;9.97;31.41;100225.41;4917674;29;20032;-78
2021/01/16 11:26:49;;;;;;;4.97;3.28;;;;;;;9.41;30.31;100216.31;4916926;29;20039;-78
2021/01/16 11:29:21;;;;;;;4.97;3.20;;;;;;;9.55;31.54;100229.81;4918060;29;20040;-78
2021/01/16 11:31:54;;;;;;;5.18;3.53;;;;;;;9.33;31.70;100229.22;4917975;29;20376;-77
2021/01/16 11:34:25;;;;;;;3.42;2.13;;;;;;;9.12;31.64;100228.59;4917614;29;20069;-78
2021/01/16 11:37:04;;;;;;;6.35;3.95;;;;;;;9.63;32.12;100237.16;4917531;29;20035;-78
2021/01/16 11:39:50;;;;;;;8.35;6.18;;;;;;;9.80;30.94;100225.75;4917955;29;20032;-78
2021/01/16 11:42:18;;;;;;;5.25;3.80;;;;;;;9.45;30.61;100229.16;4917867;29;20039;-78
2021/01/16 11:45:00;;;;;;;10.43;7.50;;;;;;;9.52;31.50;100224.97;4902319;29;20032;-79
2021/01/16 11:47:27;;;;;;;5.70;2.72;;;;;;;8.81;31.69;100221.72;4918252;29;20032;-78
2021/01/16 11:49:54;;;;;;;3.75;2.38;;;;;;;9.14;30.87;100220.72;4917206;29;20032;-78
2021/01/16 11:52:20;;;;;;;3.05;2.83;;;;;;;9.41;30.86;100219.09;4917068;29;20035;-78
2021/01/16 11:54:48;;;;;;;4.90;3.13;;;;;;;9.47;30.37;100214.09;4917165;29;20035;-78
2021/01/16 11:57:18;;;;;;;4.18;2.05;;;;;;;9.16;29.47;100226.72;4917279;29;20040;-78
2021/01/16 11:59:44;;;;;;;5.60;2.90;;;;;;;9.12;30.60;100228.59;4917004;29;20036;-78
2021/01/16 12:02:14;;;;;;;1.83;1.70;;;;;;;9.43;29.99;100231.50;4917132;29;20135;-78
2021/01/16 12:04:46;;;;;;;4.88;1.92;;;;;;;9.24;29.88;100225.78;4917568;29;20088;-78
2021/01/16 12:07:14;;;;;;;4.95;2.53;;;;;;;8.92;29.77;100214.53;4917020;29;20036;-78
2021/01/16 12:09:44;;;;;;;5.47;3.00;;;;;;;9.21;31.51;100220.91;4917051;29;20028;-78
2021/01/16 12:12:11;;;;;;;5.07;3.22;;;;;;;9.07;31.22;100221.31;4916783;29;20032;-78
2021/01/16 12:14:39;;;;;;;4.43;2.60;;;;;;;8.65;32.31;100227.19;4917082;29;20028;-78
2021/01/16 12:17:10;;;;;;;12.55;7.32;;;;;;;8.89;31.91;100215.25;4917021;29;20490;-78
2021/01/16 12:19:40;;;;;;;5.43;3.30;;;;;;;8.75;31.30;100214.00;4917519;29;20035;-77
2021/01/16 12:22:10;;;;;;;7.93;6.05;;;;;;;8.64;30.98;100224.78;4916712;29;20032;-78
2021/01/16 12:24:37;;;;;;;4.25;3.33;;;;;;;8.98;31.33;100222.63;4918706;29;20028;-77
2021/01/16 12:27:13;;;;;;;6.25;3.30;;;;;;;8.89;31.89;100225.53;4916752;29;20572;-77
2021/01/16 12:29:44;;;;;;;3.13;2.83;;;;;;;8.89;31.77;100223.59;4916573;29;20030;-78
2021/01/16 12:32:12;;;;;;;6.28;3.70;;;;;;;8.83;32.09;100230.50;4916793;29;20067;-77
2021/01/16 12:34:52;;;;;;;4.22;3.58;;;;;;;8.92;32.39;100203.44;4916586;29;20118;-78
2021/01/16 12:37:35;;;;;;;3.72;3.15;;;;;;;9.03;32.41;100216.81;4916383;29;20034;-77
2021/01/16 12:40:11;;;;;;;4.85;3.70;;;;;;;8.86;32.35;100227.03;4916449;29;20031;-78
2021/01/16 12:42:37;;;;;;;5.25;4.30;;;;;;;8.72;32.03;100229.38;4916383;29;20028;-78
2021/01/16 12:45:12;;;;;;;5.70;4.22;;;;;;;8.77;33.72;100220.81;4916929;29;20032;-78
2021/01/16 12:47:40;;;;;;;6.95;4.07;;;;;;;8.57;32.66;100222.56;4916458;29;20032;-78
2021/01/16 12:50:10;;;;;;;12.95;7.57;;;;;;;8.85;34.36;100230.19;4916960;29;20028;-79
2021/01/16 12:52:43;;;;;;;11.85;6.38;;;;;;;8.75;34.53;100222.34;4916444;29;20531;-78
2021/01/16 12:55:12;;;;;;;12.93;9.63;;;;;;;8.79;35.01;100237.94;4916399;29;20035;-79
2021/01/16 12:57:41;;;;;;;13.10;9.13;;;;;;;8.68;34.74;100231.22;4901649;29;20092;-79
2021/01/16 13:00:10;;;;;;;6.65;4.80;;;;;;;8.32;34.86;100232.03;4916756;29;20028;-78
2021/01/16 13:02:36;;;;;;;12.68;8.05;;;;;;;8.44;36.66;100228.50;4916114;29;20511;-78
2021/01/16 13:05:08;;;;;;;7.35;4.32;;;;;;;8.44;37.09;100228.50;4916567;29;20032;-75
2021/01/16 13:07:37;;;;;;;8.43;5.90;;;;;;;8.56;37.30;100229.28;4917216;29;20028;-77
2021/01/16 13:10:15;;;;;;;5.10;3.25;;;;;;;8.47;37.43;100222.22;4917504;29;20032;-78
2021/01/16 13:12:42;;;;;;;8.00;4.57;;;;;;;8.42;37.39;100225.25;4916155;29;20096;-78
2021/01/16 13:15:13;;;;;;;9.52;6.30;;;;;;;8.34;36.53;100218.63;4916070;29;20032;-78
2021/01/16 13:17:44;;;;;;;10.85;6.68;;;;;;;8.43;36.88;100240.75;4916547;29;20456;-78
2021/01/16 13:20:11;;;;;;;17.20;11.27;;;;;;;8.46;36.57;100238.06;4916448;29;20055;-79
2021/01/16 13:22:44;;;;;;;18.73;11.65;;;;;;;8.50;36.26;100235.41;4916534;29;20024;-78
2021/01/16 13:25:14;;;;;;;5.10;4.30;;;;;;;8.17;36.29;100247.38;4916337;29;20032;-78
2021/01/16 13:27:40;;;;;;;5.72;3.85;;;;;;;7.82;35.86;100258.84;4916576;29;20024;-78
2021/01/16 13:30:19;;;;;;;9.52;6.32;;;;;;;8.00;36.82;100225.44;4916735;29;20035;-78
2021/01/16 13:32:47;;;;;;;10.50;6.72;;;;;;;8.07;36.88;100250.59;4916784;29;20039;-78
2021/01/16 13:35:15;;;;;;;5.63;4.13;;;;;;;8.19;36.86;100258.94;4917284;29;20137;-78
2021/01/16 13:37:43;;;;;;;8.93;5.80;;;;;;;8.20;36.93;100246.69;4917645;29;20411;-77
2021/01/16 13:40:20;;;;;;;6.00;3.95;;;;;;;8.01;35.12;100258.34;4916836;29;20050;-78
2021/01/16 13:42:49;;;;;;;4.82;3.53;;;;;;;7.85;35.49;100266.50;4917095;29;20054;-78
2021/01/16 13:45:17;;;;;;;5.38;3.75;;;;;;;8.01;36.12;100260.31;4916996;29;20035;-78
2021/01/16 13:47:43;;;;;;;6.53;3.83;;;;;;;8.11;36.84;100262.63;4902133;29;20036;-79
2021/01/16 13:50:15;;;;;;;7.38;3.78;;;;;;;8.16;37.55;100262.41;4919900;29;20055;-79
2021/01/16 13:52:48;;;;;;;7.53;4.75;;;;;;;8.25;37.61;100254.78;4921234;29;20028;-78
2021/01/16 13:55:18;;;;;;;4.72;3.03;;;;;;;8.09;37.30;100264.91;4919588;29;20032;-78
2021/01/16 13:57:58;;;;;;;3.90;2.75;;;;;;;8.00;36.32;100267.00;4920381;29;20032;-77
2021/01/16 14:00:24;;;;;;;3.95;3.33;;;;;;;7.93;35.07;100263.97;4921274;29;20114;-79
2021/01/16 14:02:51;;;;;;;3.30;2.83;;;;;;;7.63;35.72;100280.75;4918939;29;20594;-78
2021/01/16 14:05:25;;;;;;;4.63;3.30;;;;;;;7.64;36.40;100293.44;4919271;29;20028;-79
2021/01/16 14:07:56;;;;;;;2.80;2.60;;;;;;;7.44;34.95;100283.19;4919117;29;20043;-79
2021/01/16 14:10:30;;;;;;;7.38;5.15;;;;;;;7.76;36.45;100279.63;4919433;29;20042;-78
2021/01/16 14:13:07;;;;;;;10.55;6.68;;;;;;;7.70;36.18;100275.44;4920752;29;20039;-78
2021/01/16 14:15:59;;;;;;;12.02;7.93;;;;;;;7.59;36.40;100296.41;4919202;29;20509;-78
2021/01/16 14:18:30;;;;;;;7.35;5.18;;;;;;;7.25;35.36;100292.81;4915924;29;20046;-78
2021/01/16 14:20:57;;;;;;;16.35;10.48;;;;;;;7.29;36.41;100298.47;4918914;29;20080;-78
2021/01/16 14:23:31;;;;;;;14.85;10.60;;;;;;;7.31;36.28;100291.44;4918864;29;20032;-78
2021/01/16 14:26:22;;;;;;;10.27;8.32;;;;;;;7.15;36.07;100295.97;4919313;29;20035;-79
2021/01/16 14:28:50;;;;;;;10.63;6.95;;;;;;;7.00;36.78;100285.50;4918704;29;20037;-78
2021/01/16 14:31:18;;;;;;;16.40;10.15;;;;;;;7.15;37.00;100298.75;4919435;29;20066;-78
2021/01/16 14:33:44;;;;;;;10.88;7.97;;;;;;;7.08;37.24;100290.16;4918810;29;20028;-79
2021/01/16 14:36:19;;;;;;;8.63;4.70;;;;;;;7.08;37.48;100299.28;4919246;29;20482;-78
2021/01/16 14:38:56;;;;;;;10.70;4.75;;;;;;;7.11;37.28;100303.31;4919288;29;20030;-78
2021/01/16 14:41:37;;;;;;;7.47;4.53;;;;;;;7.06;37.87;100295.22;4919259;29;20567;-79
2021/01/16 14:44:03;;;;;;;4.47;3.95;;;;;;;7.05;37.85;100301.91;4918757;29;20035;-78
2021/01/16 14:46:29;;;;;;;13.40;6.75;;;;;;;6.94;37.78;100311.75;4918630;29;20029;-79
2021/01/16 14:48:55;;;;;;;7.97;5.28;;;;;;;6.98;38.94;100298.88;4920463;29;20039;-79
2021/01/16 14:51:29;;;;;;;10.10;7.13;;;;;;;7.04;37.84;100314.13;4939597;29;20459;-79
2021/01/16 14:54:01;;;;;;;9.77;6.38;;;;;;;7.05;38.13;100307.44;4938289;29;20070;-79
2021/01/16 14:56:28;;;;;;;23.55;14.60;;;;;;;6.89;39.21;100304.44;4934408;29;20032;-79
2021/01/16 14:58:57;;;;;;;11.38;7.88;;;;;;;6.81;39.29;100311.63;4934508;29;20039;-78
2021/01/16 15:01:41;;;;;;;17.13;9.63;;;;;;;6.72;38.35;100308.13;4917500;29;20499;-78
2021/01/16 15:04:09;;;;;;;12.00;7.82;;;;;;;6.79;39.93;100318.66;4920412;29;20032;-79
2021/01/16 15:06:48;;;;;;;10.07;6.82;;;;;;;6.70;39.56;100321.47;4924935;29;20035;-79
2021/01/16 15:09:35;;;;;;;16.77;11.55;;;;;;;6.65;40.09;100324.41;4905946;29;20088;-78
2021/01/16 15:12:04;;;;;;;12.10;8.15;;;;;;;6.60;38.98;100332.91;4902921;29;20032;-78
2021/01/16 15:14:32;;;;;;;13.65;8.77;;;;;;;6.48;38.96;100336.38;4921649;29;20103;-79
2021/01/16 15:16:59;;;;;;;10.93;7.38;;;;;;;6.39;38.82;100337.53;4921269;29;20036;-79
2021/01/16 15:19:26;;;;;;;16.25;10.35;;;;;;;6.44;39.65;100338.16;4921199;29;20479;-79
2021/01/16 15:21:52;;;;;;;16.98;12.02;;;;;;;6.28;40.89;100337.09;4921180;29;20084;-78
2021/01/16 15:24:20;;;;;;;28.25;15.75;;;;;;;6.27;40.16;100347.34;4921749;29;20434;-80
2021/01/16 15:26:46;;;;;;;25.30;12.68;;;;;;;6.12;40.16;100345.09;4922359;29;20122;-79
2021/01/16 15:29:13;;;;;;;22.83;13.45;;;;;;;5.95;41.71;100350.66;4922031;29;20031;-79
2021/01/16 15:31:40;;;;;;;12.02;9.32;;;;;;;5.94;41.74;100354.56;4919519;29;20497;-80
2021/01/16 15:34:06;;;;;;;17.67;10.05;;;;;;;5.84;41.82;100363.16;4903556;29;20472;-80
2021/01/16 15:36:32;;;;;;;27.88;18.33;;;;;;;5.78;42.17;100368.84;4903707;29;20043;-79
2021/01/16 15:39:00;;;;;;;21.55;13.98;;;;;;;5.66;41.95;100360.44;4905005;29;20032;-79
2021/01/16 15:41:37;;;;;;;21.30;13.88;;;;;;;5.62;43.21;100370.50;4907022;29;20032;-80
2021/01/16 15:44:07;;;;;;;9.85;6.38;;;;;;;5.46;42.34;100374.88;4923949;29;20034;-79
2021/01/16 15:46:33;;;;;;;21.90;12.10;;;;;;;5.49;42.91;100383.31;4923354;29;20036;-79
2021/01/16 15:49:01;;;;;;;23.40;14.63;;;;;;;5.37;43.13;100385.09;4924628;29;20110;-79
2021/01/16 15:51:39;;;;;;;20.92;12.30;;;;;;;5.32;43.05;100393.50;4923025;29;20038;-79
2021/01/16 15:54:06;;;;;;;14.00;9.68;;;;;;;5.26;42.96;100395.63;4923392;29;20419;-79
2021/01/16 15:56:34;;;;;;;19.80;11.85;;;;;;;5.11;42.94;100399.63;4923002;29;20038;-79
2021/01/16 15:59:01;;;;;;;14.98;8.80;;;;;;;5.08;42.84;100403.06;4921938;29;20118;-79
2021/01/16 16:01:29;;;;;;;15.40;8.75;;;;;;;5.09;44.47;100404.69;4922326;29;20057;-79
2021/01/16 16:03:56;;;;;;;23.42;14.85;;;;;;;5.05;43.58;100414.72;4922996;29;20034;-79